Página principal
METAR-TAF:

METAR-TAF

Aeroportos :

Xangai-Pudong, China

Aeroporto Internacional de Xangai Pudong

latitude: 31-07N, longitude: 121-46E, altura: 4 m

Observação actual do tempo

O boletim foi feito há 34 minutos, às 18:30 UTC
Vento 6 kt de es-sudeste
Temperatura 29°C
Humidade 89%
Pressão 1006 hPa
Visibilidade 10 km ou mais
sem nuvens abaixo de 1500 metros e sem cumulonimbus

METAR: ZSPD 281830Z 12003MPS CAVOK 29/27 Q1006 NOSIG

Hora: 03:04 (19:04 UTC)

Previsão

O boletim foi feito há 3 horas e 38 minutos, às 15:26 UTC
Previsão válida de 28 às 18 UTC a 29 às 18 UTC
Vento 8 kt de este
Visibilidade: 6000 m
Nuvens dispersasa uma altura de 2000 ft

TAF: ZSPD 281526Z 2818/2918 09004MPS 6000 SCT020 TX35/2906Z TN26/2821Z

Observações e previsões do tempo de mais de 4000 aeroportos (mensagens METAR e TAF).

As estações disponíveis são os pontos amarelos e vermelhos sobre o mapa.

Mova o rato sobre o mapa para ver o nome da estação.

Depois clique no ponto para visualizar as observações e previsões meteorológicas.

Para alterar o mapa : clique nos botões verdes com uma cruz preta para aumentar o zoom; no botão verde com uma pitada de zoom; ou nas setas verdes para mapas adjacentes.


METAR-TAF: